sensor_id;sensor_type;location;lat;lon;timestamp;temperature;humidity
25092;DHT22;13082;52.374;4.946;2023-05-16T00:02:14;10.70;99.90
25092;DHT22;13082;52.374;4.946;2023-05-16T00:04:40;10.70;99.90
25092;DHT22;13082;52.374;4.946;2023-05-16T00:07:07;10.80;99.90
25092;DHT22;13082;52.374;4.946;2023-05-16T00:09:33;10.90;99.90
25092;DHT22;13082;52.374;4.946;2023-05-16T00:11:58;10.90;99.90
25092;DHT22;13082;52.374;4.946;2023-05-16T00:14:24;10.90;99.90
25092;DHT22;13082;52.374;4.946;2023-05-16T00:16:52;10.80;99.90
25092;DHT22;13082;52.374;4.946;2023-05-16T00:19:17;10.90;99.90
25092;DHT22;13082;52.374;4.946;2023-05-16T00:21:44;10.90;99.90
25092;DHT22;13082;52.374;4.946;2023-05-16T00:24:10;10.80;99.90
25092;DHT22;13082;52.374;4.946;2023-05-16T00:26:36;10.60;99.90
25092;DHT22;13082;52.374;4.946;2023-05-16T00:29:01;10.60;99.90
25092;DHT22;13082;52.374;4.946;2023-05-16T00:31:27;10.50;99.90
25092;DHT22;13082;52.374;4.946;2023-05-16T00:33:52;10.40;99.90
25092;DHT22;13082;52.374;4.946;2023-05-16T00:36:19;10.30;99.90
25092;DHT22;13082;52.374;4.946;2023-05-16T00:38:45;10.30;99.90
25092;DHT22;13082;52.374;4.946;2023-05-16T00:41:11;10.30;99.90
25092;DHT22;13082;52.374;4.946;2023-05-16T00:43:37;10.40;99.90
25092;DHT22;13082;52.374;4.946;2023-05-16T00:46:04;10.50;99.90
25092;DHT22;13082;52.374;4.946;2023-05-16T00:48:29;10.60;99.90
25092;DHT22;13082;52.374;4.946;2023-05-16T00:50:55;10.60;99.90
25092;DHT22;13082;52.374;4.946;2023-05-16T00:53:22;10.60;99.90
25092;DHT22;13082;52.374;4.946;2023-05-16T00:55:48;10.60;99.90
25092;DHT22;13082;52.374;4.946;2023-05-16T00:58:15;10.70;99.90
25092;DHT22;13082;52.374;4.946;2023-05-16T01:00:41;10.70;99.90
25092;DHT22;13082;52.374;4.946;2023-05-16T01:03:07;10.70;99.90
25092;DHT22;13082;52.374;4.946;2023-05-16T01:05:33;10.70;99.90
25092;DHT22;13082;52.374;4.946;2023-05-16T01:07:58;10.70;99.90
25092;DHT22;13082;52.374;4.946;2023-05-16T01:10:26;10.80;99.90
25092;DHT22;13082;52.374;4.946;2023-05-16T01:13:17;10.80;99.90
25092;DHT22;13082;52.374;4.946;2023-05-16T01:15:59;10.80;99.90
25092;DHT22;13082;52.374;4.946;2023-05-16T01:18:52;10.80;99.90
25092;DHT22;13082;52.374;4.946;2023-05-16T01:22:15;10.80;99.90
25092;DHT22;13082;52.374;4.946;2023-05-16T01:24:43;10.70;99.90
25092;DHT22;13082;52.374;4.946;2023-05-16T01:27:13;10.70;99.90
25092;DHT22;13082;52.374;4.946;2023-05-16T01:29:40;10.80;99.90
25092;DHT22;13082;52.374;4.946;2023-05-16T01:32:05;10.70;99.90
25092;DHT22;13082;52.374;4.946;2023-05-16T01:34:31;10.70;99.90
25092;DHT22;13082;52.374;4.946;2023-05-16T01:36:59;10.70;99.90
25092;DHT22;13082;52.374;4.946;2023-05-16T01:39:44;10.80;99.90
25092;DHT22;13082;52.374;4.946;2023-05-16T01:42:14;10.70;99.90
25092;DHT22;13082;52.374;4.946;2023-05-16T01:44:59;10.70;99.90
25092;DHT22;13082;52.374;4.946;2023-05-16T01:47:29;10.80;99.90
25092;DHT22;13082;52.374;4.946;2023-05-16T01:50:09;10.80;99.90
25092;DHT22;13082;52.374;4.946;2023-05-16T01:52:44;10.70;99.90
25092;DHT22;13082;52.374;4.946;2023-05-16T01:55:17;10.70;99.90
25092;DHT22;13082;52.374;4.946;2023-05-16T01:57:46;10.70;99.90
25092;DHT22;13082;52.374;4.946;2023-05-16T02:00:13;10.70;99.90
25092;DHT22;13082;52.374;4.946;2023-05-16T02:02:39;10.70;99.90
25092;DHT22;13082;52.374;4.946;2023-05-16T02:05:05;10.70;99.90
25092;DHT22;13082;52.374;4.946;2023-05-16T02:07:31;10.70;99.90
25092;DHT22;13082;52.374;4.946;2023-05-16T02:09:56;10.70;99.90
25092;DHT22;13082;52.374;4.946;2023-05-16T02:12:24;10.70;99.90
25092;DHT22;13082;52.374;4.946;2023-05-16T02:14:49;10.60;99.90
25092;DHT22;13082;52.374;4.946;2023-05-16T02:17:15;10.70;99.90
25092;DHT22;13082;52.374;4.946;2023-05-16T02:19:40;10.60;99.90
25092;DHT22;13082;52.374;4.946;2023-05-16T02:22:06;10.70;99.90
25092;DHT22;13082;52.374;4.946;2023-05-16T02:24:32;10.60;99.90
25092;DHT22;13082;52.374;4.946;2023-05-16T02:26:57;10.60;99.90
25092;DHT22;13082;52.374;4.946;2023-05-16T02:29:23;10.60;99.90
25092;DHT22;13082;52.374;4.946;2023-05-16T02:31:48;10.60;99.90
25092;DHT22;13082;52.374;4.946;2023-05-16T02:34:14;10.60;99.90
25092;DHT22;13082;52.374;4.946;2023-05-16T02:36:40;10.60;99.90
25092;DHT22;13082;52.374;4.946;2023-05-16T02:39:06;10.60;99.90
25092;DHT22;13082;52.374;4.946;2023-05-16T02:41:34;10.60;99.90
25092;DHT22;13082;52.374;4.946;2023-05-16T02:44:00;10.60;99.90
25092;DHT22;13082;52.374;4.946;2023-05-16T02:46:31;10.60;99.90
25092;DHT22;13082;52.374;4.946;2023-05-16T02:48:57;10.50;99.90
25092;DHT22;13082;52.374;4.946;2023-05-16T02:51:25;10.50;99.90
25092;DHT22;13082;52.374;4.946;2023-05-16T02:53:51;10.40;99.90
25092;DHT22;13082;52.374;4.946;2023-05-16T02:56:18;10.40;99.90
25092;DHT22;13082;52.374;4.946;2023-05-16T02:58:46;10.40;99.90
25092;DHT22;13082;52.374;4.946;2023-05-16T03:01:13;10.40;99.90
25092;DHT22;13082;52.374;4.946;2023-05-16T03:03:38;10.40;99.90
25092;DHT22;13082;52.374;4.946;2023-05-16T03:06:04;10.40;99.90
25092;DHT22;13082;52.374;4.946;2023-05-16T03:08:30;10.40;99.90
25092;DHT22;13082;52.374;4.946;2023-05-16T03:10:56;10.40;99.90
25092;DHT22;13082;52.374;4.946;2023-05-16T03:13:21;10.40;99.90
25092;DHT22;13082;52.374;4.946;2023-05-16T03:15:47;10.50;99.90
25092;DHT22;13082;52.374;4.946;2023-05-16T03:18:13;10.50;99.90
25092;DHT22;13082;52.374;4.946;2023-05-16T03:20:39;10.50;99.90
25092;DHT22;13082;52.374;4.946;2023-05-16T03:23:04;10.50;99.90
25092;DHT22;13082;52.374;4.946;2023-05-16T03:25:33;10.40;99.90
25092;DHT22;13082;52.374;4.946;2023-05-16T03:27:59;10.50;99.90
25092;DHT22;13082;52.374;4.946;2023-05-16T03:30:24;10.50;99.90
25092;DHT22;13082;52.374;4.946;2023-05-16T03:32:51;10.50;99.90
25092;DHT22;13082;52.374;4.946;2023-05-16T03:35:17;10.40;99.90
25092;DHT22;13082;52.374;4.946;2023-05-16T03:37:42;10.40;99.90
25092;DHT22;13082;52.374;4.946;2023-05-16T03:40:08;10.40;99.90
25092;DHT22;13082;52.374;4.946;2023-05-16T03:42:35;10.40;99.90
25092;DHT22;13082;52.374;4.946;2023-05-16T03:45:01;10.30;99.90
25092;DHT22;13082;52.374;4.946;2023-05-16T03:47:27;10.40;99.90
25092;DHT22;13082;52.374;4.946;2023-05-16T03:49:55;10.30;99.90
25092;DHT22;13082;52.374;4.946;2023-05-16T03:52:21;10.30;99.90
25092;DHT22;13082;52.374;4.946;2023-05-16T03:54:46;10.30;99.90
25092;DHT22;13082;52.374;4.946;2023-05-16T03:57:12;10.30;99.90
25092;DHT22;13082;52.374;4.946;2023-05-16T03:59:38;10.30;99.90
25092;DHT22;13082;52.374;4.946;2023-05-16T04:02:04;10.30;99.90
25092;DHT22;13082;52.374;4.946;2023-05-16T04:04:30;10.30;99.90
25092;DHT22;13082;52.374;4.946;2023-05-16T04:06:55;10.30;99.90
25092;DHT22;13082;52.374;4.946;2023-05-16T04:09:21;10.30;99.90
25092;DHT22;13082;52.374;4.946;2023-05-16T04:11:46;10.30;99.90
25092;DHT22;13082;52.374;4.946;2023-05-16T04:14:13;10.30;99.90
25092;DHT22;13082;52.374;4.946;2023-05-16T04:16:40;10.30;99.90
25092;DHT22;13082;52.374;4.946;2023-05-16T04:19:06;10.30;99.90
25092;DHT22;13082;52.374;4.946;2023-05-16T04:21:31;10.30;99.90
25092;DHT22;13082;52.374;4.946;2023-05-16T04:23:57;10.30;99.90
25092;DHT22;13082;52.374;4.946;2023-05-16T04:26:23;10.20;99.90
25092;DHT22;13082;52.374;4.946;2023-05-16T04:28:49;10.20;99.90
25092;DHT22;13082;52.374;4.946;2023-05-16T04:31:15;10.20;99.90
25092;DHT22;13082;52.374;4.946;2023-05-16T04:33:41;10.20;99.90
25092;DHT22;13082;52.374;4.946;2023-05-16T04:36:07;10.20;99.90
25092;DHT22;13082;52.374;4.946;2023-05-16T04:38:32;10.20;99.90
25092;DHT22;13082;52.374;4.946;2023-05-16T04:40:58;10.20;99.90
25092;DHT22;13082;52.374;4.946;2023-05-16T04:43:25;10.30;99.90
25092;DHT22;13082;52.374;4.946;2023-05-16T04:45:51;10.40;99.90
25092;DHT22;13082;52.374;4.946;2023-05-16T04:48:18;10.40;99.90
25092;DHT22;13082;52.374;4.946;2023-05-16T04:50:44;10.40;99.90
25092;DHT22;13082;52.374;4.946;2023-05-16T04:53:10;10.30;99.90
25092;DHT22;13082;52.374;4.946;2023-05-16T04:55:35;10.30;99.90
25092;DHT22;13082;52.374;4.946;2023-05-16T04:58:01;10.30;99.90
25092;DHT22;13082;52.374;4.946;2023-05-16T05:00:26;10.30;99.90
25092;DHT22;13082;52.374;4.946;2023-05-16T05:02:52;10.30;99.90
25092;DHT22;13082;52.374;4.946;2023-05-16T05:05:18;10.30;99.90
25092;DHT22;13082;52.374;4.946;2023-05-16T05:07:43;10.30;99.90
25092;DHT22;13082;52.374;4.946;2023-05-16T05:10:09;10.40;99.90
25092;DHT22;13082;52.374;4.946;2023-05-16T05:12:35;10.40;99.90
25092;DHT22;13082;52.374;4.946;2023-05-16T05:15:01;10.40;99.90
25092;DHT22;13082;52.374;4.946;2023-05-16T05:17:28;10.50;99.90
25092;DHT22;13082;52.374;4.946;2023-05-16T05:19:54;10.50;99.90
25092;DHT22;13082;52.374;4.946;2023-05-16T05:22:19;10.60;99.90
25092;DHT22;13082;52.374;4.946;2023-05-16T05:24:45;10.70;99.90
25092;DHT22;13082;52.374;4.946;2023-05-16T05:27:11;10.70;99.90
25092;DHT22;13082;52.374;4.946;2023-05-16T05:29:37;10.70;99.90
25092;DHT22;13082;52.374;4.946;2023-05-16T05:32:03;10.70;99.90
25092;DHT22;13082;52.374;4.946;2023-05-16T05:34:29;10.80;99.90
25092;DHT22;13082;52.374;4.946;2023-05-16T05:36:55;10.80;99.90
25092;DHT22;13082;52.374;4.946;2023-05-16T05:39:21;10.80;99.90
25092;DHT22;13082;52.374;4.946;2023-05-16T05:41:47;10.90;99.90
25092;DHT22;13082;52.374;4.946;2023-05-16T05:44:12;10.90;99.90
25092;DHT22;13082;52.374;4.946;2023-05-16T05:46:38;10.90;99.90
25092;DHT22;13082;52.374;4.946;2023-05-16T05:49:04;10.80;99.90
25092;DHT22;13082;52.374;4.946;2023-05-16T05:51:30;10.80;99.90
25092;DHT22;13082;52.374;4.946;2023-05-16T05:53:56;10.80;99.90
25092;DHT22;13082;52.374;4.946;2023-05-16T05:56:21;10.90;99.90
25092;DHT22;13082;52.374;4.946;2023-05-16T05:58:49;10.90;99.90
25092;DHT22;13082;52.374;4.946;2023-05-16T06:01:15;11.00;99.90
25092;DHT22;13082;52.374;4.946;2023-05-16T06:03:41;11.10;99.90
25092;DHT22;13082;52.374;4.946;2023-05-16T06:06:07;11.10;99.90
25092;DHT22;13082;52.374;4.946;2023-05-16T06:08:33;11.20;99.90
25092;DHT22;13082;52.374;4.946;2023-05-16T06:10:59;11.30;99.90
25092;DHT22;13082;52.374;4.946;2023-05-16T06:13:24;11.30;99.90
25092;DHT22;13082;52.374;4.946;2023-05-16T06:15:53;11.30;99.90
25092;DHT22;13082;52.374;4.946;2023-05-16T06:18:20;11.40;99.90
25092;DHT22;13082;52.374;4.946;2023-05-16T06:20:45;11.40;99.90
25092;DHT22;13082;52.374;4.946;2023-05-16T06:23:11;11.40;99.90
25092;DHT22;13082;52.374;4.946;2023-05-16T06:25:37;11.40;99.90
25092;DHT22;13082;52.374;4.946;2023-05-16T06:28:03;11.30;99.90
25092;DHT22;13082;52.374;4.946;2023-05-16T06:30:28;11.20;99.90
25092;DHT22;13082;52.374;4.946;2023-05-16T06:32:54;11.30;99.90
25092;DHT22;13082;52.374;4.946;2023-05-16T06:35:19;11.40;99.90
25092;DHT22;13082;52.374;4.946;2023-05-16T06:37:45;11.40;99.90
25092;DHT22;13082;52.374;4.946;2023-05-16T06:40:11;11.40;99.90
25092;DHT22;13082;52.374;4.946;2023-05-16T06:42:37;11.50;99.90
25092;DHT22;13082;52.374;4.946;2023-05-16T06:45:03;11.60;99.90
25092;DHT22;13082;52.374;4.946;2023-05-16T06:47:28;11.70;99.90
25092;DHT22;13082;52.374;4.946;2023-05-16T06:49:54;11.80;99.90
25092;DHT22;13082;52.374;4.946;2023-05-16T06:52:20;11.80;99.90
25092;DHT22;13082;52.374;4.946;2023-05-16T06:54:46;11.90;99.90
25092;DHT22;13082;52.374;4.946;2023-05-16T06:57:12;11.90;99.90
25092;DHT22;13082;52.374;4.946;2023-05-16T06:59:38;11.90;99.90
25092;DHT22;13082;52.374;4.946;2023-05-16T07:02:04;11.80;99.90
25092;DHT22;13082;52.374;4.946;2023-05-16T07:04:30;11.80;99.90
25092;DHT22;13082;52.374;4.946;2023-05-16T07:06:56;11.70;99.90
25092;DHT22;13082;52.374;4.946;2023-05-16T07:09:22;11.70;99.90
25092;DHT22;13082;52.374;4.946;2023-05-16T07:11:47;11.70;99.90
25092;DHT22;13082;52.374;4.946;2023-05-16T07:14:13;11.70;99.90
25092;DHT22;13082;52.374;4.946;2023-05-16T07:16:38;11.70;99.90
25092;DHT22;13082;52.374;4.946;2023-05-16T07:19:04;11.60;99.90
25092;DHT22;13082;52.374;4.946;2023-05-16T07:21:30;11.60;99.90
25092;DHT22;13082;52.374;4.946;2023-05-16T07:23:56;11.60;99.90
25092;DHT22;13082;52.374;4.946;2023-05-16T07:26:22;11.60;99.90
25092;DHT22;13082;52.374;4.946;2023-05-16T07:28:49;11.70;99.90
25092;DHT22;13082;52.374;4.946;2023-05-16T07:31:15;11.80;99.90
25092;DHT22;13082;52.374;4.946;2023-05-16T07:33:44;12.00;99.90
25092;DHT22;13082;52.374;4.946;2023-05-16T07:36:13;12.10;99.90
25092;DHT22;13082;52.374;4.946;2023-05-16T07:38:39;12.20;99.90
25092;DHT22;13082;52.374;4.946;2023-05-16T07:41:04;12.20;99.90
25092;DHT22;13082;52.374;4.946;2023-05-16T07:43:30;12.30;99.90
25092;DHT22;13082;52.374;4.946;2023-05-16T07:45:56;12.50;99.90
25092;DHT22;13082;52.374;4.946;2023-05-16T07:48:22;12.50;99.90
25092;DHT22;13082;52.374;4.946;2023-05-16T07:50:47;12.60;99.90
25092;DHT22;13082;52.374;4.946;2023-05-16T07:53:13;12.70;99.90
25092;DHT22;13082;52.374;4.946;2023-05-16T07:55:38;12.90;99.90
25092;DHT22;13082;52.374;4.946;2023-05-16T07:58:04;13.00;99.90
25092;DHT22;13082;52.374;4.946;2023-05-16T08:00:30;13.10;99.90
25092;DHT22;13082;52.374;4.946;2023-05-16T08:02:56;13.10;99.90
25092;DHT22;13082;52.374;4.946;2023-05-16T08:05:22;13.10;99.90
25092;DHT22;13082;52.374;4.946;2023-05-16T08:07:48;13.10;99.90
25092;DHT22;13082;52.374;4.946;2023-05-16T08:10:14;13.00;99.90
25092;DHT22;13082;52.374;4.946;2023-05-16T08:12:39;12.90;99.90
25092;DHT22;13082;52.374;4.946;2023-05-16T08:15:06;12.90;99.90
25092;DHT22;13082;52.374;4.946;2023-05-16T08:17:32;12.90;99.90
25092;DHT22;13082;52.374;4.946;2023-05-16T08:19:57;13.00;99.90
25092;DHT22;13082;52.374;4.946;2023-05-16T08:22:24;12.90;99.90
25092;DHT22;13082;52.374;4.946;2023-05-16T08:24:50;13.00;99.90
25092;DHT22;13082;52.374;4.946;2023-05-16T08:27:15;13.10;99.90
25092;DHT22;13082;52.374;4.946;2023-05-16T08:29:41;13.10;99.90
25092;DHT22;13082;52.374;4.946;2023-05-16T08:32:07;13.20;99.90
25092;DHT22;13082;52.374;4.946;2023-05-16T08:34:34;13.20;99.90
25092;DHT22;13082;52.374;4.946;2023-05-16T08:36:59;13.30;99.90
25092;DHT22;13082;52.374;4.946;2023-05-16T08:39:25;13.20;99.90
25092;DHT22;13082;52.374;4.946;2023-05-16T08:41:51;13.20;99.90
25092;DHT22;13082;52.374;4.946;2023-05-16T08:44:16;13.10;99.90
25092;DHT22;13082;52.374;4.946;2023-05-16T08:46:50;13.10;99.90
25092;DHT22;13082;52.374;4.946;2023-05-16T08:49:17;13.00;99.90
25092;DHT22;13082;52.374;4.946;2023-05-16T08:51:47;13.00;99.90
25092;DHT22;13082;52.374;4.946;2023-05-16T08:54:16;13.00;99.90
25092;DHT22;13082;52.374;4.946;2023-05-16T08:56:43;13.10;99.90
25092;DHT22;13082;52.374;4.946;2023-05-16T08:59:10;13.30;99.90
25092;DHT22;13082;52.374;4.946;2023-05-16T09:01:36;13.50;99.90
25092;DHT22;13082;52.374;4.946;2023-05-16T09:04:03;13.50;99.90
25092;DHT22;13082;52.374;4.946;2023-05-16T09:06:29;13.50;99.90
25092;DHT22;13082;52.374;4.946;2023-05-16T09:08:55;13.60;99.90
25092;DHT22;13082;52.374;4.946;2023-05-16T09:11:21;13.60;99.90
25092;DHT22;13082;52.374;4.946;2023-05-16T09:13:48;13.80;99.90
25092;DHT22;13082;52.374;4.946;2023-05-16T09:16:18;13.90;99.90
25092;DHT22;13082;52.374;4.946;2023-05-16T09:18:55;14.00;99.90
25092;DHT22;13082;52.374;4.946;2023-05-16T09:21:25;13.90;99.90
25092;DHT22;13082;52.374;4.946;2023-05-16T09:23:51;13.90;99.90
25092;DHT22;13082;52.374;4.946;2023-05-16T09:26:18;13.90;99.90
25092;DHT22;13082;52.374;4.946;2023-05-16T09:28:43;14.00;99.90
25092;DHT22;13082;52.374;4.946;2023-05-16T09:31:22;14.10;99.90
25092;DHT22;13082;52.374;4.946;2023-05-16T09:33:56;14.30;99.90
25092;DHT22;13082;52.374;4.946;2023-05-16T09:36:22;14.30;99.90
25092;DHT22;13082;52.374;4.946;2023-05-16T09:38:51;14.30;99.90
25092;DHT22;13082;52.374;4.946;2023-05-16T09:41:17;14.20;99.90
25092;DHT22;13082;52.374;4.946;2023-05-16T09:43:43;14.20;99.90
25092;DHT22;13082;52.374;4.946;2023-05-16T09:46:13;14.20;99.90
25092;DHT22;13082;52.374;4.946;2023-05-16T09:48:49;14.30;99.90
25092;DHT22;13082;52.374;4.946;2023-05-16T09:51:20;14.40;99.90
25092;DHT22;13082;52.374;4.946;2023-05-16T09:53:46;14.50;99.90
25092;DHT22;13082;52.374;4.946;2023-05-16T09:56:13;14.60;99.90
25092;DHT22;13082;52.374;4.946;2023-05-16T09:58:41;14.60;99.90
25092;DHT22;13082;52.374;4.946;2023-05-16T10:01:08;14.50;99.90
25092;DHT22;13082;52.374;4.946;2023-05-16T10:03:39;14.40;99.90
25092;DHT22;13082;52.374;4.946;2023-05-16T10:06:06;14.30;99.90
25092;DHT22;13082;52.374;4.946;2023-05-16T10:08:34;14.20;99.90
25092;DHT22;13082;52.374;4.946;2023-05-16T10:11:05;14.20;99.90
25092;DHT22;13082;52.374;4.946;2023-05-16T10:13:35;14.10;99.90
25092;DHT22;13082;52.374;4.946;2023-05-16T10:16:11;14.10;99.90
25092;DHT22;13082;52.374;4.946;2023-05-16T10:18:39;14.20;99.90
25092;DHT22;13082;52.374;4.946;2023-05-16T10:21:09;14.30;99.90
25092;DHT22;13082;52.374;4.946;2023-05-16T10:23:41;14.30;99.90
25092;DHT22;13082;52.374;4.946;2023-05-16T10:26:08;14.50;99.90
25092;DHT22;13082;52.374;4.946;2023-05-16T10:28:35;14.60;99.90
25092;DHT22;13082;52.374;4.946;2023-05-16T10:31:01;14.70;99.90
25092;DHT22;13082;52.374;4.946;2023-05-16T10:33:27;14.70;99.90
25092;DHT22;13082;52.374;4.946;2023-05-16T10:35:53;14.80;99.90
25092;DHT22;13082;52.374;4.946;2023-05-16T10:38:20;14.90;99.90
25092;DHT22;13082;52.374;4.946;2023-05-16T10:40:48;14.90;99.90
25092;DHT22;13082;52.374;4.946;2023-05-16T10:43:28;14.90;99.90
25092;DHT22;13082;52.374;4.946;2023-05-16T10:46:13;14.90;99.90
25092;DHT22;13082;52.374;4.946;2023-05-16T10:48:40;15.00;99.90
25092;DHT22;13082;52.374;4.946;2023-05-16T10:53:50;15.10;99.90
25092;DHT22;13082;52.374;4.946;2023-05-16T10:56:25;15.10;99.90
25092;DHT22;13082;52.374;4.946;2023-05-16T10:58:52;15.10;99.90
25092;DHT22;13082;52.374;4.946;2023-05-16T11:06:29;14.90;99.90
25092;DHT22;13082;52.374;4.946;2023-05-16T11:11:59;14.80;99.90
25092;DHT22;13082;52.374;4.946;2023-05-16T11:14:37;14.70;99.90
25092;DHT22;13082;52.374;4.946;2023-05-16T11:17:20;14.60;99.90
25092;DHT22;13082;52.374;4.946;2023-05-16T11:19:54;14.60;99.90
25092;DHT22;13082;52.374;4.946;2023-05-16T11:22:24;14.50;99.90
25092;DHT22;13082;52.374;4.946;2023-05-16T11:24:58;14.50;99.90
25092;DHT22;13082;52.374;4.946;2023-05-16T11:32:40;14.60;99.90
25092;DHT22;13082;52.374;4.946;2023-05-16T11:35:10;14.80;99.90
25092;DHT22;13082;52.374;4.946;2023-05-16T11:37:36;14.80;99.90
25092;DHT22;13082;52.374;4.946;2023-05-16T11:40:05;14.70;99.90
25092;DHT22;13082;52.374;4.946;2023-05-16T11:42:46;14.80;99.90
25092;DHT22;13082;52.374;4.946;2023-05-16T11:45:17;14.90;99.90
25092;DHT22;13082;52.374;4.946;2023-05-16T11:47:44;15.00;99.90
25092;DHT22;13082;52.374;4.946;2023-05-16T11:50:14;15.10;99.90
25092;DHT22;13082;52.374;4.946;2023-05-16T11:52:45;15.10;99.90
25092;DHT22;13082;52.374;4.946;2023-05-16T11:55:11;15.10;99.90
25092;DHT22;13082;52.374;4.946;2023-05-16T11:57:38;14.90;99.90
25092;DHT22;13082;52.374;4.946;2023-05-16T12:00:07;14.80;99.90
25092;DHT22;13082;52.374;4.946;2023-05-16T12:02:38;14.70;99.90
25092;DHT22;13082;52.374;4.946;2023-05-16T12:05:10;14.80;99.90
25092;DHT22;13082;52.374;4.946;2023-05-16T12:07:36;14.90;99.90
25092;DHT22;13082;52.374;4.946;2023-05-16T12:10:05;15.10;99.90
25092;DHT22;13082;52.374;4.946;2023-05-16T12:12:32;15.10;99.90
25092;DHT22;13082;52.374;4.946;2023-05-16T12:14:58;15.10;99.90
25092;DHT22;13082;52.374;4.946;2023-05-16T12:17:24;15.10;99.90
25092;DHT22;13082;52.374;4.946;2023-05-16T12:19:50;15.20;99.90
25092;DHT22;13082;52.374;4.946;2023-05-16T12:22:16;15.20;99.90
25092;DHT22;13082;52.374;4.946;2023-05-16T12:24:45;15.20;99.90
25092;DHT22;13082;52.374;4.946;2023-05-16T12:27:10;15.20;99.90
25092;DHT22;13082;52.374;4.946;2023-05-16T12:29:37;15.20;99.90
25092;DHT22;13082;52.374;4.946;2023-05-16T12:32:03;15.20;99.90
25092;DHT22;13082;52.374;4.946;2023-05-16T12:34:29;15.10;99.90
25092;DHT22;13082;52.374;4.946;2023-05-16T12:36:55;15.20;99.90
25092;DHT22;13082;52.374;4.946;2023-05-16T12:39:21;15.20;99.90
25092;DHT22;13082;52.374;4.946;2023-05-16T12:41:49;15.40;99.90
25092;DHT22;13082;52.374;4.946;2023-05-16T12:44:17;15.50;99.90
25092;DHT22;13082;52.374;4.946;2023-05-16T12:46:45;15.60;99.90
25092;DHT22;13082;52.374;4.946;2023-05-16T12:49:12;15.60;99.90
25092;DHT22;13082;52.374;4.946;2023-05-16T12:51:38;15.70;99.90
25092;DHT22;13082;52.374;4.946;2023-05-16T12:54:09;15.70;99.90
25092;DHT22;13082;52.374;4.946;2023-05-16T12:56:37;15.70;99.90
25092;DHT22;13082;52.374;4.946;2023-05-16T12:59:02;15.60;99.90
25092;DHT22;13082;52.374;4.946;2023-05-16T13:01:28;15.60;99.90
25092;DHT22;13082;52.374;4.946;2023-05-16T13:03:53;15.50;99.90
25092;DHT22;13082;52.374;4.946;2023-05-16T13:06:19;15.50;99.90
25092;DHT22;13082;52.374;4.946;2023-05-16T13:08:45;15.50;99.90
25092;DHT22;13082;52.374;4.946;2023-05-16T13:11:11;15.50;99.90
25092;DHT22;13082;52.374;4.946;2023-05-16T13:13:37;15.50;99.90
25092;DHT22;13082;52.374;4.946;2023-05-16T13:16:02;15.50;99.90
25092;DHT22;13082;52.374;4.946;2023-05-16T13:18:28;15.60;99.90
25092;DHT22;13082;52.374;4.946;2023-05-16T13:20:54;15.80;99.90
25092;DHT22;13082;52.374;4.946;2023-05-16T13:23:19;16.00;99.90
25092;DHT22;13082;52.374;4.946;2023-05-16T13:25:45;16.00;99.90
25092;DHT22;13082;52.374;4.946;2023-05-16T13:28:11;15.90;99.90
25092;DHT22;13082;52.374;4.946;2023-05-16T13:30:37;15.80;99.90
25092;DHT22;13082;52.374;4.946;2023-05-16T13:33:03;15.90;99.90
25092;DHT22;13082;52.374;4.946;2023-05-16T13:35:28;16.00;99.90
25092;DHT22;13082;52.374;4.946;2023-05-16T13:37:54;16.10;99.90
25092;DHT22;13082;52.374;4.946;2023-05-16T13:40:20;16.10;99.90
25092;DHT22;13082;52.374;4.946;2023-05-16T13:42:46;16.20;99.90
25092;DHT22;13082;52.374;4.946;2023-05-16T13:45:11;16.20;99.90
25092;DHT22;13082;52.374;4.946;2023-05-16T13:47:37;16.10;99.90
25092;DHT22;13082;52.374;4.946;2023-05-16T13:50:03;15.90;99.90
25092;DHT22;13082;52.374;4.946;2023-05-16T13:52:33;15.80;99.90
25092;DHT22;13082;52.374;4.946;2023-05-16T13:54:59;15.80;99.90
25092;DHT22;13082;52.374;4.946;2023-05-16T13:57:24;15.60;99.90
25092;DHT22;13082;52.374;4.946;2023-05-16T13:59:51;15.70;99.90
25092;DHT22;13082;52.374;4.946;2023-05-16T14:02:18;15.70;99.90
25092;DHT22;13082;52.374;4.946;2023-05-16T14:04:43;15.70;99.90
25092;DHT22;13082;52.374;4.946;2023-05-16T14:07:09;15.80;99.90
25092;DHT22;13082;52.374;4.946;2023-05-16T14:09:35;15.80;99.90
25092;DHT22;13082;52.374;4.946;2023-05-16T14:12:04;15.80;99.90
25092;DHT22;13082;52.374;4.946;2023-05-16T14:14:32;15.80;99.90
25092;DHT22;13082;52.374;4.946;2023-05-16T14:16:57;15.80;99.90
25092;DHT22;13082;52.374;4.946;2023-05-16T14:19:23;15.70;99.90
25092;DHT22;13082;52.374;4.946;2023-05-16T14:21:49;15.60;99.90
25092;DHT22;13082;52.374;4.946;2023-05-16T14:24:15;15.70;99.90
25092;DHT22;13082;52.374;4.946;2023-05-16T14:26:40;15.80;99.90
25092;DHT22;13082;52.374;4.946;2023-05-16T14:29:06;15.80;99.90
25092;DHT22;13082;52.374;4.946;2023-05-16T14:31:32;15.70;99.90
25092;DHT22;13082;52.374;4.946;2023-05-16T14:33:58;15.70;99.90
25092;DHT22;13082;52.374;4.946;2023-05-16T14:36:24;15.60;99.90
25092;DHT22;13082;52.374;4.946;2023-05-16T14:38:49;15.60;99.90
25092;DHT22;13082;52.374;4.946;2023-05-16T14:41:15;15.60;99.90
25092;DHT22;13082;52.374;4.946;2023-05-16T14:43:41;15.60;99.90
25092;DHT22;13082;52.374;4.946;2023-05-16T14:46:07;15.50;99.90
25092;DHT22;13082;52.374;4.946;2023-05-16T14:48:32;15.40;99.90
25092;DHT22;13082;52.374;4.946;2023-05-16T14:50:58;15.30;99.90
25092;DHT22;13082;52.374;4.946;2023-05-16T14:53:24;15.20;99.90
25092;DHT22;13082;52.374;4.946;2023-05-16T14:55:50;15.00;99.90
25092;DHT22;13082;52.374;4.946;2023-05-16T14:58:16;15.00;99.90
25092;DHT22;13082;52.374;4.946;2023-05-16T15:00:41;15.00;99.90
25092;DHT22;13082;52.374;4.946;2023-05-16T15:03:07;14.90;99.90
25092;DHT22;13082;52.374;4.946;2023-05-16T15:05:33;14.90;99.90
25092;DHT22;13082;52.374;4.946;2023-05-16T15:07:58;14.90;99.90
25092;DHT22;13082;52.374;4.946;2023-05-16T15:10:24;14.80;99.90
25092;DHT22;13082;52.374;4.946;2023-05-16T15:12:50;14.60;99.90
25092;DHT22;13082;52.374;4.946;2023-05-16T15:15:16;14.50;99.90
25092;DHT22;13082;52.374;4.946;2023-05-16T15:17:41;14.40;99.90
25092;DHT22;13082;52.374;4.946;2023-05-16T15:20:08;14.40;99.90
25092;DHT22;13082;52.374;4.946;2023-05-16T15:22:38;14.30;99.90
25092;DHT22;13082;52.374;4.946;2023-05-16T15:25:06;14.20;99.90
25092;DHT22;13082;52.374;4.946;2023-05-16T15:27:32;14.10;99.90
25092;DHT22;13082;52.374;4.946;2023-05-16T15:29:57;14.10;99.90
25092;DHT22;13082;52.374;4.946;2023-05-16T15:32:23;14.10;99.90
25092;DHT22;13082;52.374;4.946;2023-05-16T15:34:50;14.00;99.90
25092;DHT22;13082;52.374;4.946;2023-05-16T15:37:16;14.00;99.90
25092;DHT22;13082;52.374;4.946;2023-05-16T15:39:41;13.90;99.90
25092;DHT22;13082;52.374;4.946;2023-05-16T15:42:07;13.90;99.90
25092;DHT22;13082;52.374;4.946;2023-05-16T15:44:33;13.90;99.90
25092;DHT22;13082;52.374;4.946;2023-05-16T15:46:59;14.00;99.90